sensor_id;sensor_type;location;lat;lon;timestamp;P1;durP1;ratioP1;P2;durP2;ratioP2
62037;SDS011;47991;42.974;12.082;2023-10-19T00:00:20;9.10;;;4.20;;
62037;SDS011;47991;42.974;12.082;2023-10-19T00:03:07;10.30;;;4.50;;
62037;SDS011;47991;42.974;12.082;2023-10-19T00:05:35;6.60;;;4.10;;
62037;SDS011;47991;42.974;12.082;2023-10-19T00:08:02;9.40;;;4.40;;
62037;SDS011;47991;42.974;12.082;2023-10-19T00:10:47;9.50;;;4.30;;
62037;SDS011;47991;42.974;12.082;2023-10-19T00:13:37;8.30;;;4.10;;
62037;SDS011;47991;42.974;12.082;2023-10-19T00:16:08;8.20;;;4.20;;
62037;SDS011;47991;42.974;12.082;2023-10-19T00:18:55;10.20;;;4.20;;
62037;SDS011;47991;42.974;12.082;2023-10-19T00:23:54;9.20;;;3.60;;
62037;SDS011;47991;42.974;12.082;2023-10-19T00:26:31;11.90;;;3.90;;
62037;SDS011;47991;42.974;12.082;2023-10-19T00:28:59;7.20;;;3.80;;
62037;SDS011;47991;42.974;12.082;2023-10-19T00:31:32;9.00;;;3.30;;
62037;SDS011;47991;42.974;12.082;2023-10-19T00:37:39;9.20;;;3.20;;
62037;SDS011;47991;42.974;12.082;2023-10-19T00:40:11;9.40;;;3.60;;
62037;SDS011;47991;42.974;12.082;2023-10-19T00:42:53;8.10;;;3.70;;
62037;SDS011;47991;42.974;12.082;2023-10-19T00:45:22;11.00;;;3.50;;
62037;SDS011;47991;42.974;12.082;2023-10-19T00:47:53;9.30;;;4.70;;
62037;SDS011;47991;42.974;12.082;2023-10-19T00:50:20;10.30;;;4.40;;
62037;SDS011;47991;42.974;12.082;2023-10-19T00:52:53;8.70;;;4.10;;
62037;SDS011;47991;42.974;12.082;2023-10-19T00:55:24;9.50;;;5.60;;
62037;SDS011;47991;42.974;12.082;2023-10-19T00:57:54;9.80;;;5.70;;
62037;SDS011;47991;42.974;12.082;2023-10-19T01:00:21;10.40;;;5.10;;
62037;SDS011;47991;42.974;12.082;2023-10-19T01:02:57;15.10;;;5.00;;
62037;SDS011;47991;42.974;12.082;2023-10-19T01:05:31;10.90;;;4.70;;
62037;SDS011;47991;42.974;12.082;2023-10-19T01:08:05;10.40;;;5.30;;
62037;SDS011;47991;42.974;12.082;2023-10-19T01:10:52;11.10;;;4.00;;
62037;SDS011;47991;42.974;12.082;2023-10-19T01:13:20;8.70;;;3.80;;
62037;SDS011;47991;42.974;12.082;2023-10-19T01:16:01;8.70;;;3.70;;
62037;SDS011;47991;42.974;12.082;2023-10-19T01:18:27;10.40;;;3.80;;
62037;SDS011;47991;42.974;12.082;2023-10-19T01:20:55;7.10;;;3.20;;
62037;SDS011;47991;42.974;12.082;2023-10-19T01:23:22;9.60;;;3.60;;
62037;SDS011;47991;42.974;12.082;2023-10-19T01:25:53;9.30;;;3.40;;
62037;SDS011;47991;42.974;12.082;2023-10-19T01:28:22;9.30;;;3.60;;
62037;SDS011;47991;42.974;12.082;2023-10-19T01:31:09;9.60;;;3.10;;
62037;SDS011;47991;42.974;12.082;2023-10-19T01:33:41;7.30;;;2.70;;
62037;SDS011;47991;42.974;12.082;2023-10-19T01:36:10;8.40;;;3.30;;
62037;SDS011;47991;42.974;12.082;2023-10-19T01:38:38;10.70;;;3.50;;
62037;SDS011;47991;42.974;12.082;2023-10-19T01:41:06;6.70;;;2.90;;
62037;SDS011;47991;42.974;12.082;2023-10-19T01:43:41;9.70;;;3.00;;
62037;SDS011;47991;42.974;12.082;2023-10-19T01:46:09;8.20;;;3.00;;
62037;SDS011;47991;42.974;12.082;2023-10-19T01:48:42;7.90;;;2.80;;
62037;SDS011;47991;42.974;12.082;2023-10-19T01:53:43;9.60;;;3.00;;
62037;SDS011;47991;42.974;12.082;2023-10-19T01:56:14;9.50;;;3.20;;
62037;SDS011;47991;42.974;12.082;2023-10-19T02:01:43;7.60;;;3.30;;
62037;SDS011;47991;42.974;12.082;2023-10-19T02:04:12;8.60;;;3.30;;
62037;SDS011;47991;42.974;12.082;2023-10-19T02:06:39;9.40;;;2.80;;
62037;SDS011;47991;42.974;12.082;2023-10-19T02:09:08;8.80;;;3.10;;
62037;SDS011;47991;42.974;12.082;2023-10-19T02:11:44;7.80;;;3.20;;
62037;SDS011;47991;42.974;12.082;2023-10-19T02:14:18;9.70;;;3.10;;
62037;SDS011;47991;42.974;12.082;2023-10-19T02:16:46;8.20;;;2.90;;
62037;SDS011;47991;42.974;12.082;2023-10-19T02:19:17;9.10;;;3.40;;
62037;SDS011;47991;42.974;12.082;2023-10-19T02:21:56;8.80;;;3.00;;
62037;SDS011;47991;42.974;12.082;2023-10-19T02:24:25;8.20;;;2.80;;
62037;SDS011;47991;42.974;12.082;2023-10-19T02:26:54;8.40;;;2.90;;
62037;SDS011;47991;42.974;12.082;2023-10-19T02:29:22;8.20;;;2.80;;
62037;SDS011;47991;42.974;12.082;2023-10-19T02:31:51;10.30;;;3.00;;
62037;SDS011;47991;42.974;12.082;2023-10-19T02:34:20;6.80;;;3.10;;
62037;SDS011;47991;42.974;12.082;2023-10-19T02:36:49;7.50;;;3.20;;
62037;SDS011;47991;42.974;12.082;2023-10-19T02:39:16;8.40;;;3.00;;
62037;SDS011;47991;42.974;12.082;2023-10-19T02:41:44;7.60;;;3.00;;
62037;SDS011;47991;42.974;12.082;2023-10-19T02:44:16;9.00;;;3.30;;
62037;SDS011;47991;42.974;12.082;2023-10-19T02:46:50;7.70;;;3.30;;
62037;SDS011;47991;42.974;12.082;2023-10-19T02:49:21;8.70;;;3.40;;
62037;SDS011;47991;42.974;12.082;2023-10-19T02:54:17;7.30;;;2.80;;
62037;SDS011;47991;42.974;12.082;2023-10-19T02:56:52;7.10;;;3.30;;
62037;SDS011;47991;42.974;12.082;2023-10-19T02:59:21;8.10;;;3.40;;
62037;SDS011;47991;42.974;12.082;2023-10-19T03:01:49;8.50;;;3.60;;
62037;SDS011;47991;42.974;12.082;2023-10-19T03:04:18;9.60;;;3.20;;
62037;SDS011;47991;42.974;12.082;2023-10-19T03:06:47;7.50;;;3.30;;
62037;SDS011;47991;42.974;12.082;2023-10-19T03:09:16;7.70;;;3.50;;
62037;SDS011;47991;42.974;12.082;2023-10-19T03:11:49;9.00;;;3.70;;
62037;SDS011;47991;42.974;12.082;2023-10-19T03:14:21;8.00;;;3.40;;
62037;SDS011;47991;42.974;12.082;2023-10-19T03:16:52;9.00;;;3.30;;
62037;SDS011;47991;42.974;12.082;2023-10-19T03:19:22;7.60;;;3.50;;
62037;SDS011;47991;42.974;12.082;2023-10-19T03:21:51;7.80;;;3.60;;
62037;SDS011;47991;42.974;12.082;2023-10-19T03:24:19;10.00;;;3.30;;
62037;SDS011;47991;42.974;12.082;2023-10-19T03:27:05;6.60;;;3.50;;
62037;SDS011;47991;42.974;12.082;2023-10-19T03:29:39;9.80;;;3.70;;
62037;SDS011;47991;42.974;12.082;2023-10-19T03:32:07;7.90;;;3.50;;
62037;SDS011;47991;42.974;12.082;2023-10-19T03:34:34;9.90;;;3.90;;
62037;SDS011;47991;42.974;12.082;2023-10-19T03:37:02;13.00;;;4.00;;
62037;SDS011;47991;42.974;12.082;2023-10-19T03:39:33;8.50;;;3.70;;
62037;SDS011;47991;42.974;12.082;2023-10-19T03:42:00;8.00;;;3.40;;
62037;SDS011;47991;42.974;12.082;2023-10-19T03:44:27;9.20;;;3.50;;
62037;SDS011;47991;42.974;12.082;2023-10-19T03:47:05;7.80;;;3.80;;
62037;SDS011;47991;42.974;12.082;2023-10-19T03:49:38;8.60;;;3.40;;
62037;SDS011;47991;42.974;12.082;2023-10-19T03:52:06;10.20;;;3.70;;
62037;SDS011;47991;42.974;12.082;2023-10-19T03:54:37;8.70;;;3.10;;
62037;SDS011;47991;42.974;12.082;2023-10-19T03:57:16;9.50;;;3.80;;
62037;SDS011;47991;42.974;12.082;2023-10-19T03:59:56;9.60;;;3.10;;
62037;SDS011;47991;42.974;12.082;2023-10-19T04:02:24;10.20;;;3.60;;
62037;SDS011;47991;42.974;12.082;2023-10-19T04:04:56;8.90;;;3.40;;
62037;SDS011;47991;42.974;12.082;2023-10-19T04:07:28;9.00;;;3.50;;
62037;SDS011;47991;42.974;12.082;2023-10-19T04:09:57;8.20;;;3.10;;
62037;SDS011;47991;42.974;12.082;2023-10-19T04:12:34;11.00;;;3.60;;
62037;SDS011;47991;42.974;12.082;2023-10-19T04:15:03;7.50;;;3.50;;
62037;SDS011;47991;42.974;12.082;2023-10-19T04:17:36;9.20;;;3.10;;
62037;SDS011;47991;42.974;12.082;2023-10-19T04:20:08;10.70;;;4.00;;
62037;SDS011;47991;42.974;12.082;2023-10-19T04:22:54;9.00;;;4.00;;
62037;SDS011;47991;42.974;12.082;2023-10-19T04:25:32;11.80;;;3.70;;
62037;SDS011;47991;42.974;12.082;2023-10-19T04:27:59;9.00;;;3.60;;
62037;SDS011;47991;42.974;12.082;2023-10-19T04:30:27;10.50;;;3.90;;
62037;SDS011;47991;42.974;12.082;2023-10-19T04:32:53;8.70;;;3.20;;
62037;SDS011;47991;42.974;12.082;2023-10-19T04:35:24;8.90;;;3.60;;
62037;SDS011;47991;42.974;12.082;2023-10-19T04:37:56;11.60;;;3.40;;
62037;SDS011;47991;42.974;12.082;2023-10-19T04:40:23;11.00;;;3.80;;
62037;SDS011;47991;42.974;12.082;2023-10-19T04:42:51;8.40;;;3.30;;
62037;SDS011;47991;42.974;12.082;2023-10-19T04:45:18;11.00;;;3.30;;
62037;SDS011;47991;42.974;12.082;2023-10-19T04:47:45;10.40;;;3.20;;
62037;SDS011;47991;42.974;12.082;2023-10-19T04:50:18;9.30;;;4.10;;
62037;SDS011;47991;42.974;12.082;2023-10-19T04:52:45;10.50;;;3.80;;
62037;SDS011;47991;42.974;12.082;2023-10-19T04:55:12;10.00;;;3.40;;
62037;SDS011;47991;42.974;12.082;2023-10-19T04:57:39;16.10;;;4.00;;
62037;SDS011;47991;42.974;12.082;2023-10-19T05:00:06;11.10;;;3.90;;
62037;SDS011;47991;42.974;12.082;2023-10-19T05:02:39;12.00;;;3.90;;
62037;SDS011;47991;42.974;12.082;2023-10-19T05:05:07;9.30;;;3.70;;
62037;SDS011;47991;42.974;12.082;2023-10-19T05:07:34;10.60;;;3.90;;
62037;SDS011;47991;42.974;12.082;2023-10-19T05:10:01;9.60;;;3.80;;
62037;SDS011;47991;42.974;12.082;2023-10-19T05:12:29;11.80;;;4.40;;
62037;SDS011;47991;42.974;12.082;2023-10-19T05:14:56;8.70;;;3.70;;
62037;SDS011;47991;42.974;12.082;2023-10-19T05:17:23;8.20;;;3.60;;
62037;SDS011;47991;42.974;12.082;2023-10-19T05:19:50;13.70;;;3.70;;
62037;SDS011;47991;42.974;12.082;2023-10-19T05:22:17;11.60;;;3.70;;
62037;SDS011;47991;42.974;12.082;2023-10-19T05:24:44;10.60;;;3.80;;
62037;SDS011;47991;42.974;12.082;2023-10-19T05:27:12;10.30;;;3.80;;
62037;SDS011;47991;42.974;12.082;2023-10-19T05:29:39;9.00;;;3.70;;
62037;SDS011;47991;42.974;12.082;2023-10-19T05:32:06;9.70;;;3.90;;
62037;SDS011;47991;42.974;12.082;2023-10-19T05:34:33;9.00;;;4.20;;
62037;SDS011;47991;42.974;12.082;2023-10-19T05:37:07;9.70;;;3.80;;
62037;SDS011;47991;42.974;12.082;2023-10-19T05:39:35;8.60;;;3.60;;
62037;SDS011;47991;42.974;12.082;2023-10-19T05:42:03;10.90;;;4.20;;
62037;SDS011;47991;42.974;12.082;2023-10-19T05:44:30;11.50;;;4.00;;
62037;SDS011;47991;42.974;12.082;2023-10-19T05:46:57;12.30;;;4.30;;
62037;SDS011;47991;42.974;12.082;2023-10-19T05:49:24;12.20;;;4.10;;
62037;SDS011;47991;42.974;12.082;2023-10-19T05:51:51;11.00;;;4.00;;
62037;SDS011;47991;42.974;12.082;2023-10-19T05:54:18;11.70;;;4.20;;
62037;SDS011;47991;42.974;12.082;2023-10-19T05:56:45;12.00;;;4.00;;
62037;SDS011;47991;42.974;12.082;2023-10-19T05:59:12;12.50;;;4.30;;
62037;SDS011;47991;42.974;12.082;2023-10-19T06:01:40;13.50;;;4.50;;
62037;SDS011;47991;42.974;12.082;2023-10-19T06:04:13;10.90;;;4.30;;
62037;SDS011;47991;42.974;12.082;2023-10-19T06:06:40;12.30;;;4.60;;
62037;SDS011;47991;42.974;12.082;2023-10-19T06:09:07;12.40;;;4.80;;
62037;SDS011;47991;42.974;12.082;2023-10-19T06:11:37;14.60;;;4.60;;
62037;SDS011;47991;42.974;12.082;2023-10-19T06:14:08;12.50;;;4.50;;
62037;SDS011;47991;42.974;12.082;2023-10-19T06:16:36;9.20;;;4.30;;
62037;SDS011;47991;42.974;12.082;2023-10-19T06:19:03;9.40;;;3.90;;
62037;SDS011;47991;42.974;12.082;2023-10-19T06:21:31;8.80;;;4.10;;
62037;SDS011;47991;42.974;12.082;2023-10-19T06:24:02;11.30;;;4.20;;
62037;SDS011;47991;42.974;12.082;2023-10-19T06:28:57;11.00;;;4.30;;
62037;SDS011;47991;42.974;12.082;2023-10-19T06:31:25;13.40;;;4.70;;
62037;SDS011;47991;42.974;12.082;2023-10-19T06:33:52;14.30;;;4.50;;
62037;SDS011;47991;42.974;12.082;2023-10-19T06:36:19;10.40;;;4.20;;
62037;SDS011;47991;42.974;12.082;2023-10-19T06:38:46;11.80;;;4.30;;
62037;SDS011;47991;42.974;12.082;2023-10-19T06:41:15;11.00;;;4.40;;
62037;SDS011;47991;42.974;12.082;2023-10-19T06:43:43;9.80;;;4.10;;
62037;SDS011;47991;42.974;12.082;2023-10-19T06:46:10;12.40;;;4.50;;
62037;SDS011;47991;42.974;12.082;2023-10-19T06:48:41;11.80;;;4.10;;
62037;SDS011;47991;42.974;12.082;2023-10-19T06:51:09;9.30;;;4.40;;
62037;SDS011;47991;42.974;12.082;2023-10-19T06:53:36;12.70;;;4.20;;
62037;SDS011;47991;42.974;12.082;2023-10-19T06:56:03;9.60;;;4.00;;
62037;SDS011;47991;42.974;12.082;2023-10-19T06:58:30;10.50;;;3.90;;
62037;SDS011;47991;42.974;12.082;2023-10-19T07:00:58;11.50;;;3.90;;
62037;SDS011;47991;42.974;12.082;2023-10-19T07:03:34;12.30;;;4.10;;
62037;SDS011;47991;42.974;12.082;2023-10-19T07:06:03;14.60;;;4.30;;
62037;SDS011;47991;42.974;12.082;2023-10-19T07:08:30;12.40;;;4.30;;
62037;SDS011;47991;42.974;12.082;2023-10-19T07:10:57;11.40;;;4.20;;
62037;SDS011;47991;42.974;12.082;2023-10-19T07:13:24;12.50;;;4.10;;
62037;SDS011;47991;42.974;12.082;2023-10-19T07:15:52;14.70;;;4.10;;
62037;SDS011;47991;42.974;12.082;2023-10-19T07:18:19;12.20;;;4.40;;
62037;SDS011;47991;42.974;12.082;2023-10-19T07:20:46;10.60;;;3.90;;
62037;SDS011;47991;42.974;12.082;2023-10-19T07:23:15;11.40;;;4.80;;
62037;SDS011;47991;42.974;12.082;2023-10-19T07:25:46;13.50;;;4.50;;
62037;SDS011;47991;42.974;12.082;2023-10-19T07:28:19;10.30;;;4.10;;
62037;SDS011;47991;42.974;12.082;2023-10-19T07:34:22;9.60;;;3.80;;
62037;SDS011;47991;42.974;12.082;2023-10-19T07:36:54;14.40;;;4.30;;
62037;SDS011;47991;42.974;12.082;2023-10-19T07:39:21;12.60;;;3.90;;
62037;SDS011;47991;42.974;12.082;2023-10-19T07:41:49;11.10;;;4.10;;
62037;SDS011;47991;42.974;12.082;2023-10-19T07:44:16;10.70;;;4.10;;
62037;SDS011;47991;42.974;12.082;2023-10-19T07:46:43;11.50;;;3.80;;
62037;SDS011;47991;42.974;12.082;2023-10-19T07:49:11;13.20;;;4.20;;
62037;SDS011;47991;42.974;12.082;2023-10-19T07:54:12;15.80;;;4.40;;
62037;SDS011;47991;42.974;12.082;2023-10-19T07:56:40;11.10;;;3.80;;
62037;SDS011;47991;42.974;12.082;2023-10-19T07:59:07;13.30;;;4.30;;
62037;SDS011;47991;42.974;12.082;2023-10-19T08:01:34;11.20;;;3.60;;
62037;SDS011;47991;42.974;12.082;2023-10-19T08:04:02;9.30;;;4.10;;
62037;SDS011;47991;42.974;12.082;2023-10-19T08:06:29;10.00;;;3.90;;
62037;SDS011;47991;42.974;12.082;2023-10-19T08:08:57;12.00;;;3.60;;
62037;SDS011;47991;42.974;12.082;2023-10-19T08:11:25;16.60;;;4.60;;
62037;SDS011;47991;42.974;12.082;2023-10-19T08:13:51;11.40;;;3.80;;
62037;SDS011;47991;42.974;12.082;2023-10-19T08:16:19;15.90;;;4.50;;
62037;SDS011;47991;42.974;12.082;2023-10-19T08:18:47;10.70;;;4.10;;
62037;SDS011;47991;42.974;12.082;2023-10-19T08:21:13;11.80;;;4.40;;
62037;SDS011;47991;42.974;12.082;2023-10-19T08:23:40;18.90;;;5.30;;
62037;SDS011;47991;42.974;12.082;2023-10-19T08:26:07;11.00;;;4.40;;
62037;SDS011;47991;42.974;12.082;2023-10-19T08:28:34;12.90;;;3.90;;
62037;SDS011;47991;42.974;12.082;2023-10-19T08:31:01;15.10;;;5.10;;
62037;SDS011;47991;42.974;12.082;2023-10-19T08:33:28;13.80;;;4.50;;
62037;SDS011;47991;42.974;12.082;2023-10-19T08:35:56;14.80;;;4.90;;
62037;SDS011;47991;42.974;12.082;2023-10-19T08:38:23;17.00;;;4.50;;
62037;SDS011;47991;42.974;12.082;2023-10-19T08:40:50;10.80;;;4.10;;
62037;SDS011;47991;42.974;12.082;2023-10-19T08:43:17;13.00;;;4.40;;
62037;SDS011;47991;42.974;12.082;2023-10-19T08:45:45;15.30;;;4.50;;
62037;SDS011;47991;42.974;12.082;2023-10-19T08:48:12;9.40;;;3.90;;
62037;SDS011;47991;42.974;12.082;2023-10-19T08:50:40;11.90;;;4.10;;
62037;SDS011;47991;42.974;12.082;2023-10-19T08:53:08;11.70;;;4.00;;
62037;SDS011;47991;42.974;12.082;2023-10-19T08:55:40;14.20;;;4.20;;
62037;SDS011;47991;42.974;12.082;2023-10-19T08:58:07;14.30;;;4.80;;
62037;SDS011;47991;42.974;12.082;2023-10-19T09:00:44;15.60;;;4.70;;
62037;SDS011;47991;42.974;12.082;2023-10-19T09:03:13;12.90;;;3.90;;
62037;SDS011;47991;42.974;12.082;2023-10-19T09:05:40;13.80;;;4.10;;
62037;SDS011;47991;42.974;12.082;2023-10-19T09:08:07;16.20;;;4.40;;
62037;SDS011;47991;42.974;12.082;2023-10-19T09:10:36;15.50;;;4.30;;
62037;SDS011;47991;42.974;12.082;2023-10-19T09:13:04;11.90;;;4.50;;
62037;SDS011;47991;42.974;12.082;2023-10-19T09:15:35;17.90;;;4.60;;
62037;SDS011;47991;42.974;12.082;2023-10-19T09:18:22;16.10;;;4.50;;
62037;SDS011;47991;42.974;12.082;2023-10-19T09:20:51;15.10;;;4.20;;
62037;SDS011;47991;42.974;12.082;2023-10-19T09:23:20;16.70;;;4.90;;
62037;SDS011;47991;42.974;12.082;2023-10-19T09:25:48;15.60;;;4.50;;
62037;SDS011;47991;42.974;12.082;2023-10-19T09:28:16;10.40;;;4.10;;
62037;SDS011;47991;42.974;12.082;2023-10-19T09:33:38;14.30;;;4.70;;
62037;SDS011;47991;42.974;12.082;2023-10-19T09:36:07;15.50;;;4.40;;
62037;SDS011;47991;42.974;12.082;2023-10-19T09:41:18;15.10;;;5.20;;
62037;SDS011;47991;42.974;12.082;2023-10-19T09:43:57;16.10;;;4.90;;
62037;SDS011;47991;42.974;12.082;2023-10-19T09:46:31;13.40;;;4.80;;
62037;SDS011;47991;42.974;12.082;2023-10-19T09:48:59;16.30;;;4.70;;
62037;SDS011;47991;42.974;12.082;2023-10-19T09:51:26;12.90;;;4.10;;
62037;SDS011;47991;42.974;12.082;2023-10-19T09:54:00;21.30;;;4.80;;
62037;SDS011;47991;42.974;12.082;2023-10-19T09:56:38;14.20;;;4.60;;
62037;SDS011;47991;42.974;12.082;2023-10-19T09:59:12;16.40;;;4.30;;
62037;SDS011;47991;42.974;12.082;2023-10-19T10:02:06;12.60;;;4.20;;
62037;SDS011;47991;42.974;12.082;2023-10-19T10:04:40;16.20;;;4.40;;
62037;SDS011;47991;42.974;12.082;2023-10-19T10:07:09;16.60;;;4.40;;
62037;SDS011;47991;42.974;12.082;2023-10-19T10:09:37;18.10;;;5.40;;
62037;SDS011;47991;42.974;12.082;2023-10-19T10:12:17;19.00;;;4.90;;
62037;SDS011;47991;42.974;12.082;2023-10-19T10:14:57;11.30;;;4.00;;
62037;SDS011;47991;42.974;12.082;2023-10-19T10:17:26;13.70;;;3.90;;
62037;SDS011;47991;42.974;12.082;2023-10-19T10:20:39;15.20;;;4.40;;
62037;SDS011;47991;42.974;12.082;2023-10-19T10:22:41;12.20;;;3.70;;
62037;SDS011;47991;42.974;12.082;2023-10-19T10:25:08;13.50;;;3.50;;
62037;SDS011;47991;42.974;12.082;2023-10-19T10:27:53;13.70;;;3.90;;
62037;SDS011;47991;42.974;12.082;2023-10-19T10:30:22;14.30;;;4.80;;
62037;SDS011;47991;42.974;12.082;2023-10-19T10:32:53;15.20;;;4.70;;
62037;SDS011;47991;42.974;12.082;2023-10-19T10:38:08;15.80;;;4.10;;
62037;SDS011;47991;42.974;12.082;2023-10-19T10:40:49;16.10;;;4.00;;
62037;SDS011;47991;42.974;12.082;2023-10-19T10:43:18;17.10;;;4.30;;
62037;SDS011;47991;42.974;12.082;2023-10-19T10:45:46;13.70;;;4.20;;
62037;SDS011;47991;42.974;12.082;2023-10-19T10:48:13;13.30;;;3.30;;
62037;SDS011;47991;42.974;12.082;2023-10-19T10:50:48;17.00;;;4.10;;
62037;SDS011;47991;42.974;12.082;2023-10-19T10:53:16;13.20;;;3.50;;
62037;SDS011;47991;42.974;12.082;2023-10-19T10:55:43;15.10;;;3.10;;
62037;SDS011;47991;42.974;12.082;2023-10-19T10:58:17;17.80;;;3.60;;
62037;SDS011;47991;42.974;12.082;2023-10-19T11:00:44;12.80;;;3.30;;
62037;SDS011;47991;42.974;12.082;2023-10-19T11:03:18;13.70;;;3.60;;
62037;SDS011;47991;42.974;12.082;2023-10-19T11:05:45;15.80;;;3.90;;
62037;SDS011;47991;42.974;12.082;2023-10-19T11:08:13;15.50;;;4.20;;
62037;SDS011;47991;42.974;12.082;2023-10-19T11:10:45;18.10;;;4.20;;
62037;SDS011;47991;42.974;12.082;2023-10-19T11:13:13;11.80;;;3.40;;
62037;SDS011;47991;42.974;12.082;2023-10-19T11:15:49;15.90;;;4.30;;
62037;SDS011;47991;42.974;12.082;2023-10-19T11:21:02;12.50;;;3.30;;
62037;SDS011;47991;42.974;12.082;2023-10-19T11:23:43;13.80;;;3.30;;
62037;SDS011;47991;42.974;12.082;2023-10-19T11:26:18;10.90;;;2.70;;
62037;SDS011;47991;42.974;12.082;2023-10-19T11:28:47;13.60;;;3.30;;
62037;SDS011;47991;42.974;12.082;2023-10-19T11:31:27;16.80;;;3.80;;
62037;SDS011;47991;42.974;12.082;2023-10-19T11:33:57;11.40;;;3.40;;
62037;SDS011;47991;42.974;12.082;2023-10-19T11:36:24;14.00;;;3.70;;
62037;SDS011;47991;42.974;12.082;2023-10-19T11:38:52;13.10;;;3.20;;
62037;SDS011;47991;42.974;12.082;2023-10-19T11:41:20;12.60;;;2.90;;
62037;SDS011;47991;42.974;12.082;2023-10-19T11:43:47;13.30;;;3.50;;
62037;SDS011;47991;42.974;12.082;2023-10-19T11:46:16;18.10;;;3.50;;
62037;SDS011;47991;42.974;12.082;2023-10-19T11:48:49;9.70;;;2.60;;
62037;SDS011;47991;42.974;12.082;2023-10-19T11:51:16;12.70;;;3.40;;
62037;SDS011;47991;42.974;12.082;2023-10-19T11:53:43;11.90;;;3.20;;
62037;SDS011;47991;42.974;12.082;2023-10-19T11:56:11;13.40;;;3.50;;
62037;SDS011;47991;42.974;12.082;2023-10-19T11:58:39;13.80;;;3.40;;
62037;SDS011;47991;42.974;12.082;2023-10-19T12:01:08;14.80;;;3.60;;
62037;SDS011;47991;42.974;12.082;2023-10-19T12:03:41;15.20;;;3.40;;
62037;SDS011;47991;42.974;12.082;2023-10-19T12:06:12;15.70;;;3.50;;
62037;SDS011;47991;42.974;12.082;2023-10-19T12:08:45;14.10;;;3.40;;
62037;SDS011;47991;42.974;12.082;2023-10-19T12:11:13;12.90;;;3.10;;
62037;SDS011;47991;42.974;12.082;2023-10-19T12:13:46;13.40;;;3.30;;
62037;SDS011;47991;42.974;12.082;2023-10-19T12:16:13;14.90;;;3.60;;
62037;SDS011;47991;42.974;12.082;2023-10-19T12:18:44;14.30;;;3.50;;
62037;SDS011;47991;42.974;12.082;2023-10-19T12:21:15;14.10;;;3.50;;
62037;SDS011;47991;42.974;12.082;2023-10-19T12:23:44;16.40;;;3.10;;
62037;SDS011;47991;42.974;12.082;2023-10-19T12:26:11;15.20;;;3.30;;
62037;SDS011;47991;42.974;12.082;2023-10-19T12:28:39;14.70;;;3.80;;
62037;SDS011;47991;42.974;12.082;2023-10-19T12:31:08;17.50;;;4.10;;
62037;SDS011;47991;42.974;12.082;2023-10-19T12:33:35;10.40;;;2.80;;
62037;SDS011;47991;42.974;12.082;2023-10-19T12:36:05;15.90;;;3.80;;
62037;SDS011;47991;42.974;12.082;2023-10-19T12:38:52;18.80;;;3.30;;
62037;SDS011;47991;42.974;12.082;2023-10-19T12:41:19;13.00;;;3.40;;
62037;SDS011;47991;42.974;12.082;2023-10-19T12:43:47;15.10;;;3.40;;
62037;SDS011;47991;42.974;12.082;2023-10-19T12:46:15;14.10;;;3.00;;
62037;SDS011;47991;42.974;12.082;2023-10-19T12:48:43;16.10;;;3.50;;
62037;SDS011;47991;42.974;12.082;2023-10-19T12:51:11;12.80;;;3.60;;
62037;SDS011;47991;42.974;12.082;2023-10-19T12:53:38;14.70;;;3.70;;
62037;SDS011;47991;42.974;12.082;2023-10-19T12:56:05;12.40;;;3.40;;
62037;SDS011;47991;42.974;12.082;2023-10-19T12:58:34;13.90;;;3.50;;
62037;SDS011;47991;42.974;12.082;2023-10-19T13:01:01;12.30;;;3.10;;
62037;SDS011;47991;42.974;12.082;2023-10-19T13:03:32;11.80;;;2.90;;
62037;SDS011;47991;42.974;12.082;2023-10-19T13:06:00;11.00;;;2.70;;
62037;SDS011;47991;42.974;12.082;2023-10-19T13:08:31;13.60;;;3.20;;
62037;SDS011;47991;42.974;12.082;2023-10-19T13:10:58;14.20;;;3.20;;
62037;SDS011;47991;42.974;12.082;2023-10-19T13:13:25;13.80;;;3.70;;
62037;SDS011;47991;42.974;12.082;2023-10-19T13:15:54;15.40;;;3.80;;
62037;SDS011;47991;42.974;12.082;2023-10-19T13:18:21;13.10;;;3.30;;
62037;SDS011;47991;42.974;12.082;2023-10-19T13:20:54;14.30;;;3.90;;
62037;SDS011;47991;42.974;12.082;2023-10-19T13:23:23;13.70;;;3.40;;
62037;SDS011;47991;42.974;12.082;2023-10-19T13:25:50;8.40;;;2.80;;
62037;SDS011;47991;42.974;12.082;2023-10-19T13:28:21;15.40;;;3.70;;
62037;SDS011;47991;42.974;12.082;2023-10-19T13:30:49;14.60;;;3.40;;
62037;SDS011;47991;42.974;12.082;2023-10-19T13:33:17;13.80;;;3.70;;
62037;SDS011;47991;42.974;12.082;2023-10-19T13:35:45;14.00;;;3.40;;
62037;SDS011;47991;42.974;12.082;2023-10-19T13:38:13;12.30;;;3.40;;
62037;SDS011;47991;42.974;12.082;2023-10-19T13:40:41;13.80;;;3.70;;
62037;SDS011;47991;42.974;12.082;2023-10-19T13:43:11;12.50;;;3.00;;
62037;SDS011;47991;42.974;12.082;2023-10-19T13:45:43;14.50;;;3.30;;
62037;SDS011;47991;42.974;12.082;2023-10-19T13:48:11;13.70;;;3.40;;
62037;SDS011;47991;42.974;12.082;2023-10-19T13:50:44;15.70;;;3.80;;
62037;SDS011;47991;42.974;12.082;2023-10-19T13:53:15;13.70;;;3.50;;
62037;SDS011;47991;42.974;12.082;2023-10-19T13:55:43;16.80;;;3.30;;
62037;SDS011;47991;42.974;12.082;2023-10-19T13:58:11;14.20;;;3.60;;
62037;SDS011;47991;42.974;12.082;2023-10-19T14:00:40;15.50;;;3.20;;
62037;SDS011;47991;42.974;12.082;2023-10-19T14:03:10;13.60;;;3.20;;
62037;SDS011;47991;42.974;12.082;2023-10-19T14:05:40;15.80;;;3.60;;
62037;SDS011;47991;42.974;12.082;2023-10-19T14:08:18;13.30;;;3.10;;
62037;SDS011;47991;42.974;12.082;2023-10-19T14:10:46;12.80;;;3.10;;
62037;SDS011;47991;42.974;12.082;2023-10-19T14:13:14;13.00;;;3.10;;
62037;SDS011;47991;42.974;12.082;2023-10-19T14:15:42;18.00;;;3.40;;
62037;SDS011;47991;42.974;12.082;2023-10-19T14:18:09;12.90;;;3.20;;
62037;SDS011;47991;42.974;12.082;2023-10-19T14:20:38;14.00;;;3.30;;
62037;SDS011;47991;42.974;12.082;2023-10-19T14:23:07;19.10;;;3.90;;
62037;SDS011;47991;42.974;12.082;2023-10-19T14:25:38;11.50;;;3.20;;
62037;SDS011;47991;42.974;12.082;2023-10-19T14:28:06;13.20;;;3.10;;
62037;SDS011;47991;42.974;12.082;2023-10-19T14:30:33;13.00;;;3.00;;
62037;SDS011;47991;42.974;12.082;2023-10-19T14:33:00;14.30;;;3.30;;
62037;SDS011;47991;42.974;12.082;2023-10-19T14:35:28;17.40;;;3.80;;
62037;SDS011;47991;42.974;12.082;2023-10-19T14:37:56;14.30;;;3.50;;
62037;SDS011;47991;42.974;12.082;2023-10-19T14:42:55;12.00;;;3.00;;
62037;SDS011;47991;42.974;12.082;2023-10-19T14:45:24;18.10;;;3.50;;
62037;SDS011;47991;42.974;12.082;2023-10-19T14:47:53;14.70;;;3.90;;
62037;SDS011;47991;42.974;12.082;2023-10-19T14:50:21;14.30;;;3.00;;
62037;SDS011;47991;42.974;12.082;2023-10-19T14:52:50;14.30;;;3.50;;
62037;SDS011;47991;42.974;12.082;2023-10-19T14:55:18;16.20;;;3.60;;
62037;SDS011;47991;42.974;12.082;2023-10-19T14:57:46;13.00;;;3.00;;
62037;SDS011;47991;42.974;12.082;2023-10-19T15:00:24;11.80;;;3.20;;
62037;SDS011;47991;42.974;12.082;2023-10-19T15:03:00;11.50;;;3.40;;
62037;SDS011;47991;42.974;12.082;2023-10-19T15:05:33;11.60;;;3.30;;
62037;SDS011;47991;42.974;12.082;2023-10-19T15:08:04;13.00;;;3.30;;
62037;SDS011;47991;42.974;12.082;2023-10-19T15:10:33;12.70;;;3.60;;
62037;SDS011;47991;42.974;12.082;2023-10-19T15:13:01;13.80;;;3.50;;
62037;SDS011;47991;42.974;12.082;2023-10-19T15:15:29;11.20;;;3.20;;
62037;SDS011;47991;42.974;12.082;2023-10-19T15:17:56;15.90;;;3.10;;